sensor_id;sensor_type;location;lat;lon;timestamp;temperature;humidity
51950;DHT22;37974;53.218;6.640;2024-01-30T00:01:26;4.20;99.90
51950;DHT22;37974;53.218;6.640;2024-01-30T00:03:52;4.20;99.90
51950;DHT22;37974;53.218;6.640;2024-01-30T00:06:19;4.30;99.90
51950;DHT22;37974;53.218;6.640;2024-01-30T00:08:46;4.30;99.90
51950;DHT22;37974;53.218;6.640;2024-01-30T00:11:14;4.30;99.90
51950;DHT22;37974;53.218;6.640;2024-01-30T00:13:41;4.80;99.90
51950;DHT22;37974;53.218;6.640;2024-01-30T00:16:07;4.30;99.90
51950;DHT22;37974;53.218;6.640;2024-01-30T00:18:33;4.30;99.90
51950;DHT22;37974;53.218;6.640;2024-01-30T00:20:59;4.30;99.90
51950;DHT22;37974;53.218;6.640;2024-01-30T00:23:24;4.30;99.90
51950;DHT22;37974;53.218;6.640;2024-01-30T00:25:50;4.30;99.90
51950;DHT22;37974;53.218;6.640;2024-01-30T00:28:16;4.80;99.90
51950;DHT22;37974;53.218;6.640;2024-01-30T00:30:41;4.30;99.90
51950;DHT22;37974;53.218;6.640;2024-01-30T00:33:08;4.30;99.90
51950;DHT22;37974;53.218;6.640;2024-01-30T00:35:34;4.30;99.90
51950;DHT22;37974;53.218;6.640;2024-01-30T00:38:00;4.30;99.90
51950;DHT22;37974;53.218;6.640;2024-01-30T00:40:26;4.30;99.90
51950;DHT22;37974;53.218;6.640;2024-01-30T00:42:52;4.20;99.90
51950;DHT22;37974;53.218;6.640;2024-01-30T00:45:17;4.20;99.90
51950;DHT22;37974;53.218;6.640;2024-01-30T00:47:44;4.30;99.90
51950;DHT22;37974;53.218;6.640;2024-01-30T00:50:10;4.20;99.90
51950;DHT22;37974;53.218;6.640;2024-01-30T00:52:36;4.20;99.90
51950;DHT22;37974;53.218;6.640;2024-01-30T00:55:04;4.30;99.90
51950;DHT22;37974;53.218;6.640;2024-01-30T00:57:30;4.30;99.90
51950;DHT22;37974;53.218;6.640;2024-01-30T00:59:57;4.30;99.90
51950;DHT22;37974;53.218;6.640;2024-01-30T01:02:22;4.30;99.90
51950;DHT22;37974;53.218;6.640;2024-01-30T01:04:48;4.30;99.90
51950;DHT22;37974;53.218;6.640;2024-01-30T01:07:14;4.90;99.90
51950;DHT22;37974;53.218;6.640;2024-01-30T01:09:39;4.40;99.90
51950;DHT22;37974;53.218;6.640;2024-01-30T01:12:05;4.50;99.90
51950;DHT22;37974;53.218;6.640;2024-01-30T01:14:31;4.50;99.90
51950;DHT22;37974;53.218;6.640;2024-01-30T01:16:57;4.50;99.90
51950;DHT22;37974;53.218;6.640;2024-01-30T01:19:22;4.60;99.90
51950;DHT22;37974;53.218;6.640;2024-01-30T01:21:48;5.00;99.90
51950;DHT22;37974;53.218;6.640;2024-01-30T01:24:14;4.50;99.90
51950;DHT22;37974;53.218;6.640;2024-01-30T01:26:39;4.60;99.90
51950;DHT22;37974;53.218;6.640;2024-01-30T01:29:06;4.50;99.90
51950;DHT22;37974;53.218;6.640;2024-01-30T01:31:38;4.50;99.90
51950;DHT22;37974;53.218;6.640;2024-01-30T01:34:10;4.50;99.90
51950;DHT22;37974;53.218;6.640;2024-01-30T01:36:36;4.50;99.90
51950;DHT22;37974;53.218;6.640;2024-01-30T01:39:02;4.50;99.90
51950;DHT22;37974;53.218;6.640;2024-01-30T01:41:30;4.40;99.90
51950;DHT22;37974;53.218;6.640;2024-01-30T01:43:57;4.40;99.90
51950;DHT22;37974;53.218;6.640;2024-01-30T01:46:23;5.00;99.90
51950;DHT22;37974;53.218;6.640;2024-01-30T01:48:49;4.40;99.90
51950;DHT22;37974;53.218;6.640;2024-01-30T01:51:15;4.40;99.90
51950;DHT22;37974;53.218;6.640;2024-01-30T01:53:42;4.40;99.90
51950;DHT22;37974;53.218;6.640;2024-01-30T01:56:08;4.50;99.90
51950;DHT22;37974;53.218;6.640;2024-01-30T01:58:34;4.70;99.90
51950;DHT22;37974;53.218;6.640;2024-01-30T02:01:02;4.70;99.90
51950;DHT22;37974;53.218;6.640;2024-01-30T02:03:28;4.40;99.90
51950;DHT22;37974;53.218;6.640;2024-01-30T02:05:55;4.40;99.90
51950;DHT22;37974;53.218;6.640;2024-01-30T02:08:21;4.40;99.90
51950;DHT22;37974;53.218;6.640;2024-01-30T02:10:47;4.50;99.90
51950;DHT22;37974;53.218;6.640;2024-01-30T02:13:13;4.40;99.90
51950;DHT22;37974;53.218;6.640;2024-01-30T02:15:38;4.30;99.90
51950;DHT22;37974;53.218;6.640;2024-01-30T02:18:04;4.40;99.90
51950;DHT22;37974;53.218;6.640;2024-01-30T02:20:31;4.40;99.90
51950;DHT22;37974;53.218;6.640;2024-01-30T02:23:01;4.80;99.90
51950;DHT22;37974;53.218;6.640;2024-01-30T02:25:33;4.30;99.90
51950;DHT22;37974;53.218;6.640;2024-01-30T02:27:59;4.90;99.90
51950;DHT22;37974;53.218;6.640;2024-01-30T02:30:25;4.70;99.90
51950;DHT22;37974;53.218;6.640;2024-01-30T02:32:51;4.40;99.90
51950;DHT22;37974;53.218;6.640;2024-01-30T02:35:16;4.70;99.90
51950;DHT22;37974;53.218;6.640;2024-01-30T02:37:42;4.70;99.90
51950;DHT22;37974;53.218;6.640;2024-01-30T02:40:08;4.50;99.90
51950;DHT22;37974;53.218;6.640;2024-01-30T02:42:33;4.50;99.90
51950;DHT22;37974;53.218;6.640;2024-01-30T02:44:59;4.60;99.90
51950;DHT22;37974;53.218;6.640;2024-01-30T02:47:25;4.70;99.90
51950;DHT22;37974;53.218;6.640;2024-01-30T02:49:50;4.70;99.90
51950;DHT22;37974;53.218;6.640;2024-01-30T02:52:16;4.70;99.90
51950;DHT22;37974;53.218;6.640;2024-01-30T02:54:42;4.70;99.90
51950;DHT22;37974;53.218;6.640;2024-01-30T02:57:08;4.60;99.90
51950;DHT22;37974;53.218;6.640;2024-01-30T02:59:33;4.70;99.90
51950;DHT22;37974;53.218;6.640;2024-01-30T03:02:01;4.70;99.90
51950;DHT22;37974;53.218;6.640;2024-01-30T03:04:27;4.60;99.90
51950;DHT22;37974;53.218;6.640;2024-01-30T03:06:52;4.70;99.90
51950;DHT22;37974;53.218;6.640;2024-01-30T03:09:18;4.60;99.90
51950;DHT22;37974;53.218;6.640;2024-01-30T03:11:44;4.60;99.90
51950;DHT22;37974;53.218;6.640;2024-01-30T03:14:10;4.80;99.90
51950;DHT22;37974;53.218;6.640;2024-01-30T03:16:37;5.10;99.90
51950;DHT22;37974;53.218;6.640;2024-01-30T03:19:05;4.70;99.90
51950;DHT22;37974;53.218;6.640;2024-01-30T03:21:30;4.70;99.90
51950;DHT22;37974;53.218;6.640;2024-01-30T03:23:56;4.80;99.90
51950;DHT22;37974;53.218;6.640;2024-01-30T03:26:22;4.80;99.90
51950;DHT22;37974;53.218;6.640;2024-01-30T03:28:47;5.30;99.90
51950;DHT22;37974;53.218;6.640;2024-01-30T03:31:15;4.90;99.90
51950;DHT22;37974;53.218;6.640;2024-01-30T03:33:41;4.90;99.90
51950;DHT22;37974;53.218;6.640;2024-01-30T03:36:08;4.90;99.90
51950;DHT22;37974;53.218;6.640;2024-01-30T03:38:34;4.90;99.90
51950;DHT22;37974;53.218;6.640;2024-01-30T03:41:00;4.90;99.90
51950;DHT22;37974;53.218;6.640;2024-01-30T03:43:26;4.90;99.90
51950;DHT22;37974;53.218;6.640;2024-01-30T03:45:52;4.90;99.90
51950;DHT22;37974;53.218;6.640;2024-01-30T03:48:18;4.90;99.90
51950;DHT22;37974;53.218;6.640;2024-01-30T03:50:44;4.90;99.90
51950;DHT22;37974;53.218;6.640;2024-01-30T03:53:09;4.90;99.90
51950;DHT22;37974;53.218;6.640;2024-01-30T03:55:35;4.90;99.90
51950;DHT22;37974;53.218;6.640;2024-01-30T03:58:01;5.00;99.90
51950;DHT22;37974;53.218;6.640;2024-01-30T04:00:27;5.00;99.90
51950;DHT22;37974;53.218;6.640;2024-01-30T04:02:52;4.90;99.90
51950;DHT22;37974;53.218;6.640;2024-01-30T04:05:18;5.40;99.90
51950;DHT22;37974;53.218;6.640;2024-01-30T04:07:44;5.30;99.90
51950;DHT22;37974;53.218;6.640;2024-01-30T04:10:10;5.10;99.90
51950;DHT22;37974;53.218;6.640;2024-01-30T04:12:36;5.10;99.90
51950;DHT22;37974;53.218;6.640;2024-01-30T04:15:02;5.20;99.90
51950;DHT22;37974;53.218;6.640;2024-01-30T04:17:29;5.20;99.90
51950;DHT22;37974;53.218;6.640;2024-01-30T04:19:54;5.30;99.90
51950;DHT22;37974;53.218;6.640;2024-01-30T04:22:20;5.40;99.90
51950;DHT22;37974;53.218;6.640;2024-01-30T04:24:46;5.40;99.90
51950;DHT22;37974;53.218;6.640;2024-01-30T04:27:12;5.90;99.90
51950;DHT22;37974;53.218;6.640;2024-01-30T04:29:38;5.50;99.90
51950;DHT22;37974;53.218;6.640;2024-01-30T04:32:04;5.50;99.90
51950;DHT22;37974;53.218;6.640;2024-01-30T04:34:30;5.50;99.90
51950;DHT22;37974;53.218;6.640;2024-01-30T04:36:56;5.60;99.90
51950;DHT22;37974;53.218;6.640;2024-01-30T04:39:22;5.60;99.90
51950;DHT22;37974;53.218;6.640;2024-01-30T04:41:48;5.50;99.90
51950;DHT22;37974;53.218;6.640;2024-01-30T04:44:14;5.50;99.90
51950;DHT22;37974;53.218;6.640;2024-01-30T04:46:40;5.50;99.90
51950;DHT22;37974;53.218;6.640;2024-01-30T04:49:05;5.60;99.90
51950;DHT22;37974;53.218;6.640;2024-01-30T04:51:33;5.70;99.90
51950;DHT22;37974;53.218;6.640;2024-01-30T04:53:59;5.70;99.90
51950;DHT22;37974;53.218;6.640;2024-01-30T04:56:25;5.70;99.90
51950;DHT22;37974;53.218;6.640;2024-01-30T04:58:50;5.80;99.90
51950;DHT22;37974;53.218;6.640;2024-01-30T05:01:17;5.70;99.90
51950;DHT22;37974;53.218;6.640;2024-01-30T05:03:43;5.80;99.90
51950;DHT22;37974;53.218;6.640;2024-01-30T05:06:09;5.90;99.90
51950;DHT22;37974;53.218;6.640;2024-01-30T05:08:34;5.90;99.90
51950;DHT22;37974;53.218;6.640;2024-01-30T05:11:06;5.90;99.90
51950;DHT22;37974;53.218;6.640;2024-01-30T05:13:32;6.00;99.90
51950;DHT22;37974;53.218;6.640;2024-01-30T05:15:57;6.00;99.90
51950;DHT22;37974;53.218;6.640;2024-01-30T05:18:23;6.10;99.90
51950;DHT22;37974;53.218;6.640;2024-01-30T05:20:50;6.10;99.90
51950;DHT22;37974;53.218;6.640;2024-01-30T05:23:16;6.10;99.90
51950;DHT22;37974;53.218;6.640;2024-01-30T05:25:42;6.10;99.90
51950;DHT22;37974;53.218;6.640;2024-01-30T05:28:07;6.10;99.90
51950;DHT22;37974;53.218;6.640;2024-01-30T05:30:33;6.10;99.90
51950;DHT22;37974;53.218;6.640;2024-01-30T05:32:59;6.10;99.90
51950;DHT22;37974;53.218;6.640;2024-01-30T05:35:25;6.10;99.90
51950;DHT22;37974;53.218;6.640;2024-01-30T05:37:51;6.10;99.90
51950;DHT22;37974;53.218;6.640;2024-01-30T05:40:17;6.20;99.90
51950;DHT22;37974;53.218;6.640;2024-01-30T05:42:42;6.20;99.90
51950;DHT22;37974;53.218;6.640;2024-01-30T05:45:08;6.20;99.90
51950;DHT22;37974;53.218;6.640;2024-01-30T05:47:35;6.10;99.90
51950;DHT22;37974;53.218;6.640;2024-01-30T05:50:01;6.10;99.90
51950;DHT22;37974;53.218;6.640;2024-01-30T05:52:26;6.20;99.90
51950;DHT22;37974;53.218;6.640;2024-01-30T05:54:52;6.20;99.90
51950;DHT22;37974;53.218;6.640;2024-01-30T05:57:18;6.10;99.90
51950;DHT22;37974;53.218;6.640;2024-01-30T05:59:44;6.20;99.90
51950;DHT22;37974;53.218;6.640;2024-01-30T06:02:11;6.20;99.90
51950;DHT22;37974;53.218;6.640;2024-01-30T06:04:37;6.10;99.90
51950;DHT22;37974;53.218;6.640;2024-01-30T06:07:02;6.20;99.90
51950;DHT22;37974;53.218;6.640;2024-01-30T06:09:28;6.20;99.90
51950;DHT22;37974;53.218;6.640;2024-01-30T06:11:54;6.20;99.90
51950;DHT22;37974;53.218;6.640;2024-01-30T06:14:20;6.30;99.90
51950;DHT22;37974;53.218;6.640;2024-01-30T06:16:46;6.30;99.90
51950;DHT22;37974;53.218;6.640;2024-01-30T06:19:12;6.20;99.90
51950;DHT22;37974;53.218;6.640;2024-01-30T06:21:37;6.30;99.90
51950;DHT22;37974;53.218;6.640;2024-01-30T06:24:04;6.30;99.90
51950;DHT22;37974;53.218;6.640;2024-01-30T06:26:29;6.30;99.90
51950;DHT22;37974;53.218;6.640;2024-01-30T06:28:55;6.30;99.90
51950;DHT22;37974;53.218;6.640;2024-01-30T06:31:21;6.30;99.90
51950;DHT22;37974;53.218;6.640;2024-01-30T06:33:48;6.40;99.90
51950;DHT22;37974;53.218;6.640;2024-01-30T06:36:14;6.40;99.90
51950;DHT22;37974;53.218;6.640;2024-01-30T06:38:41;6.40;99.90
51950;DHT22;37974;53.218;6.640;2024-01-30T06:41:07;6.40;99.90
51950;DHT22;37974;53.218;6.640;2024-01-30T06:43:33;6.40;99.90
51950;DHT22;37974;53.218;6.640;2024-01-30T06:45:58;6.40;99.90
51950;DHT22;37974;53.218;6.640;2024-01-30T06:48:25;6.40;99.90
51950;DHT22;37974;53.218;6.640;2024-01-30T06:50:53;6.40;99.90
51950;DHT22;37974;53.218;6.640;2024-01-30T06:53:19;6.50;99.90
51950;DHT22;37974;53.218;6.640;2024-01-30T06:55:45;6.50;99.90
51950;DHT22;37974;53.218;6.640;2024-01-30T06:58:11;6.50;99.90
51950;DHT22;37974;53.218;6.640;2024-01-30T07:00:37;6.60;99.90
51950;DHT22;37974;53.218;6.640;2024-01-30T07:03:03;6.60;99.90
51950;DHT22;37974;53.218;6.640;2024-01-30T07:05:29;6.60;99.90
51950;DHT22;37974;53.218;6.640;2024-01-30T07:07:55;6.70;99.90
51950;DHT22;37974;53.218;6.640;2024-01-30T07:10:20;6.70;99.90
51950;DHT22;37974;53.218;6.640;2024-01-30T07:12:46;6.70;99.90
51950;DHT22;37974;53.218;6.640;2024-01-30T07:15:12;6.70;99.90
51950;DHT22;37974;53.218;6.640;2024-01-30T07:17:40;6.80;99.90
51950;DHT22;37974;53.218;6.640;2024-01-30T07:20:06;6.80;99.90
51950;DHT22;37974;53.218;6.640;2024-01-30T07:22:33;6.90;99.90
51950;DHT22;37974;53.218;6.640;2024-01-30T07:24:59;6.80;99.90
51950;DHT22;37974;53.218;6.640;2024-01-30T07:27:24;6.90;99.90
51950;DHT22;37974;53.218;6.640;2024-01-30T07:29:50;6.90;99.90
51950;DHT22;37974;53.218;6.640;2024-01-30T07:32:16;6.90;99.90
51950;DHT22;37974;53.218;6.640;2024-01-30T07:34:41;6.90;99.90
51950;DHT22;37974;53.218;6.640;2024-01-30T07:37:07;6.90;99.90
51950;DHT22;37974;53.218;6.640;2024-01-30T07:39:34;7.00;99.90
51950;DHT22;37974;53.218;6.640;2024-01-30T07:42:00;7.00;99.90
51950;DHT22;37974;53.218;6.640;2024-01-30T07:44:26;7.00;99.90
51950;DHT22;37974;53.218;6.640;2024-01-30T07:46:51;6.90;99.90
51950;DHT22;37974;53.218;6.640;2024-01-30T07:49:17;7.00;99.90
51950;DHT22;37974;53.218;6.640;2024-01-30T07:51:43;7.00;99.90
51950;DHT22;37974;53.218;6.640;2024-01-30T07:54:16;7.00;99.90
51950;DHT22;37974;53.218;6.640;2024-01-30T07:56:42;7.00;99.90
51950;DHT22;37974;53.218;6.640;2024-01-30T07:59:10;7.00;99.90
51950;DHT22;37974;53.218;6.640;2024-01-30T08:01:37;7.20;99.90
51950;DHT22;37974;53.218;6.640;2024-01-30T08:04:02;7.10;99.90
51950;DHT22;37974;53.218;6.640;2024-01-30T08:06:28;7.20;99.90
51950;DHT22;37974;53.218;6.640;2024-01-30T08:08:54;7.20;99.90
51950;DHT22;37974;53.218;6.640;2024-01-30T08:11:20;7.20;99.90
51950;DHT22;37974;53.218;6.640;2024-01-30T08:13:52;7.20;99.90
51950;DHT22;37974;53.218;6.640;2024-01-30T08:16:17;7.30;99.90
51950;DHT22;37974;53.218;6.640;2024-01-30T08:18:43;7.30;99.90
51950;DHT22;37974;53.218;6.640;2024-01-30T08:21:09;7.40;99.90
51950;DHT22;37974;53.218;6.640;2024-01-30T08:23:35;7.30;99.90
51950;DHT22;37974;53.218;6.640;2024-01-30T08:26:00;7.40;99.90
51950;DHT22;37974;53.218;6.640;2024-01-30T08:28:26;7.30;99.90
51950;DHT22;37974;53.218;6.640;2024-01-30T08:30:52;7.40;99.90
51950;DHT22;37974;53.218;6.640;2024-01-30T08:33:18;7.50;99.90
51950;DHT22;37974;53.218;6.640;2024-01-30T08:35:44;7.50;99.90
51950;DHT22;37974;53.218;6.640;2024-01-30T08:38:10;7.50;99.90
51950;DHT22;37974;53.218;6.640;2024-01-30T08:40:37;7.60;99.90
51950;DHT22;37974;53.218;6.640;2024-01-30T08:43:03;7.60;99.90
51950;DHT22;37974;53.218;6.640;2024-01-30T08:45:29;7.60;99.90
51950;DHT22;37974;53.218;6.640;2024-01-30T08:47:56;7.70;99.90
51950;DHT22;37974;53.218;6.640;2024-01-30T08:50:22;7.80;99.90
51950;DHT22;37974;53.218;6.640;2024-01-30T08:52:48;7.80;99.90
51950;DHT22;37974;53.218;6.640;2024-01-30T08:55:13;7.90;99.90
51950;DHT22;37974;53.218;6.640;2024-01-30T08:57:39;7.90;99.90
51950;DHT22;37974;53.218;6.640;2024-01-30T09:00:05;8.00;99.90
51950;DHT22;37974;53.218;6.640;2024-01-30T09:02:34;8.00;99.90
51950;DHT22;37974;53.218;6.640;2024-01-30T09:05:00;8.00;99.90
51950;DHT22;37974;53.218;6.640;2024-01-30T09:07:25;8.00;99.90
51950;DHT22;37974;53.218;6.640;2024-01-30T09:09:51;8.10;99.90
51950;DHT22;37974;53.218;6.640;2024-01-30T09:12:17;8.10;99.90
51950;DHT22;37974;53.218;6.640;2024-01-30T09:14:43;8.20;99.90
51950;DHT22;37974;53.218;6.640;2024-01-30T09:17:08;8.10;99.90
51950;DHT22;37974;53.218;6.640;2024-01-30T09:19:34;8.20;99.90
51950;DHT22;37974;53.218;6.640;2024-01-30T09:22:00;8.20;99.90
51950;DHT22;37974;53.218;6.640;2024-01-30T09:24:27;8.30;99.90
51950;DHT22;37974;53.218;6.640;2024-01-30T09:26:52;8.30;99.90
51950;DHT22;37974;53.218;6.640;2024-01-30T09:29:18;8.40;99.90
51950;DHT22;37974;53.218;6.640;2024-01-30T09:31:45;8.40;99.90
51950;DHT22;37974;53.218;6.640;2024-01-30T09:34:12;8.40;99.90
51950;DHT22;37974;53.218;6.640;2024-01-30T09:36:39;8.50;99.90
51950;DHT22;37974;53.218;6.640;2024-01-30T09:39:05;8.60;99.90
51950;DHT22;37974;53.218;6.640;2024-01-30T09:41:33;8.60;99.90
51950;DHT22;37974;53.218;6.640;2024-01-30T09:44:00;8.80;99.90
51950;DHT22;37974;53.218;6.640;2024-01-30T09:46:28;8.80;99.90
51950;DHT22;37974;53.218;6.640;2024-01-30T09:48:57;8.90;99.90
51950;DHT22;37974;53.218;6.640;2024-01-30T09:51:24;9.00;99.90
51950;DHT22;37974;53.218;6.640;2024-01-30T09:53:52;9.00;99.90
51950;DHT22;37974;53.218;6.640;2024-01-30T09:56:19;9.10;99.90
51950;DHT22;37974;53.218;6.640;2024-01-30T09:58:45;9.10;99.90
51950;DHT22;37974;53.218;6.640;2024-01-30T10:01:11;9.20;99.90
51950;DHT22;37974;53.218;6.640;2024-01-30T10:03:37;9.20;99.90
51950;DHT22;37974;53.218;6.640;2024-01-30T10:06:03;9.20;99.90
51950;DHT22;37974;53.218;6.640;2024-01-30T10:08:29;9.20;99.90
51950;DHT22;37974;53.218;6.640;2024-01-30T10:10:55;9.20;99.90
51950;DHT22;37974;53.218;6.640;2024-01-30T10:13:21;9.20;99.90
51950;DHT22;37974;53.218;6.640;2024-01-30T10:15:47;9.30;99.90
51950;DHT22;37974;53.218;6.640;2024-01-30T10:18:13;9.20;99.90
51950;DHT22;37974;53.218;6.640;2024-01-30T10:20:39;9.30;99.90
51950;DHT22;37974;53.218;6.640;2024-01-30T10:23:04;9.30;99.90
51950;DHT22;37974;53.218;6.640;2024-01-30T10:25:31;9.40;99.90
51950;DHT22;37974;53.218;6.640;2024-01-30T10:27:58;9.40;99.90
51950;DHT22;37974;53.218;6.640;2024-01-30T10:30:24;9.40;99.90
51950;DHT22;37974;53.218;6.640;2024-01-30T10:32:50;9.40;99.90
51950;DHT22;37974;53.218;6.640;2024-01-30T10:35:17;9.50;99.90
51950;DHT22;37974;53.218;6.640;2024-01-30T10:37:44;9.60;99.90
51950;DHT22;37974;53.218;6.640;2024-01-30T10:40:13;9.60;99.90
51950;DHT22;37974;53.218;6.640;2024-01-30T10:42:43;9.60;99.90
51950;DHT22;37974;53.218;6.640;2024-01-30T10:45:11;9.60;99.90
51950;DHT22;37974;53.218;6.640;2024-01-30T10:47:40;9.60;99.90
51950;DHT22;37974;53.218;6.640;2024-01-30T10:50:08;9.70;99.90
51950;DHT22;37974;53.218;6.640;2024-01-30T10:52:34;9.70;99.90
51950;DHT22;37974;53.218;6.640;2024-01-30T10:55:00;9.70;99.90
51950;DHT22;37974;53.218;6.640;2024-01-30T10:57:27;9.70;99.90
51950;DHT22;37974;53.218;6.640;2024-01-30T10:59:56;9.70;99.90
51950;DHT22;37974;53.218;6.640;2024-01-30T11:02:23;9.70;99.90
51950;DHT22;37974;53.218;6.640;2024-01-30T11:04:49;9.80;99.90
51950;DHT22;37974;53.218;6.640;2024-01-30T11:07:16;9.80;99.90
51950;DHT22;37974;53.218;6.640;2024-01-30T11:09:50;9.80;99.90
51950;DHT22;37974;53.218;6.640;2024-01-30T11:12:16;9.80;99.90
51950;DHT22;37974;53.218;6.640;2024-01-30T11:14:46;9.70;99.90
51950;DHT22;37974;53.218;6.640;2024-01-30T11:17:12;9.80;99.90
51950;DHT22;37974;53.218;6.640;2024-01-30T11:19:38;9.70;99.90
51950;DHT22;37974;53.218;6.640;2024-01-30T11:22:06;9.80;99.90
51950;DHT22;37974;53.218;6.640;2024-01-30T11:24:39;9.70;99.90
51950;DHT22;37974;53.218;6.640;2024-01-30T11:27:09;9.70;99.90
51950;DHT22;37974;53.218;6.640;2024-01-30T11:29:36;9.80;99.90
51950;DHT22;37974;53.218;6.640;2024-01-30T11:32:02;9.70;99.90
51950;DHT22;37974;53.218;6.640;2024-01-30T11:34:28;9.70;99.90
51950;DHT22;37974;53.218;6.640;2024-01-30T11:36:59;9.80;99.90
51950;DHT22;37974;53.218;6.640;2024-01-30T11:39:26;9.80;99.90
51950;DHT22;37974;53.218;6.640;2024-01-30T11:41:52;9.80;99.90
51950;DHT22;37974;53.218;6.640;2024-01-30T11:44:22;9.80;99.90
51950;DHT22;37974;53.218;6.640;2024-01-30T11:46:49;9.80;99.90
51950;DHT22;37974;53.218;6.640;2024-01-30T11:49:15;9.70;99.90
51950;DHT22;37974;53.218;6.640;2024-01-30T11:51:42;9.80;99.90
51950;DHT22;37974;53.218;6.640;2024-01-30T11:54:08;9.80;99.90
51950;DHT22;37974;53.218;6.640;2024-01-30T11:56:34;9.80;99.90
51950;DHT22;37974;53.218;6.640;2024-01-30T11:59:00;9.80;99.90
51950;DHT22;37974;53.218;6.640;2024-01-30T12:01:27;9.80;99.90
51950;DHT22;37974;53.218;6.640;2024-01-30T12:03:53;9.70;99.90
51950;DHT22;37974;53.218;6.640;2024-01-30T12:06:18;9.70;99.90
51950;DHT22;37974;53.218;6.640;2024-01-30T12:08:57;9.80;99.90
51950;DHT22;37974;53.218;6.640;2024-01-30T12:11:24;9.70;99.90
51950;DHT22;37974;53.218;6.640;2024-01-30T12:13:51;9.70;99.90
51950;DHT22;37974;53.218;6.640;2024-01-30T12:16:18;9.70;99.90
51950;DHT22;37974;53.218;6.640;2024-01-30T12:18:44;9.60;99.90
51950;DHT22;37974;53.218;6.640;2024-01-30T12:21:09;9.50;99.90
51950;DHT22;37974;53.218;6.640;2024-01-30T12:23:35;9.50;99.90
51950;DHT22;37974;53.218;6.640;2024-01-30T12:26:01;9.40;99.90
51950;DHT22;37974;53.218;6.640;2024-01-30T12:28:29;9.50;99.90
51950;DHT22;37974;53.218;6.640;2024-01-30T12:30:56;9.40;99.90
51950;DHT22;37974;53.218;6.640;2024-01-30T12:33:26;9.40;99.90
51950;DHT22;37974;53.218;6.640;2024-01-30T12:35:53;9.50;99.90
51950;DHT22;37974;53.218;6.640;2024-01-30T12:38:19;9.50;99.90
51950;DHT22;37974;53.218;6.640;2024-01-30T12:40:45;9.50;99.90
51950;DHT22;37974;53.218;6.640;2024-01-30T12:43:13;9.60;99.90
51950;DHT22;37974;53.218;6.640;2024-01-30T12:45:40;9.60;99.90
51950;DHT22;37974;53.218;6.640;2024-01-30T12:48:06;9.60;99.90
51950;DHT22;37974;53.218;6.640;2024-01-30T12:50:32;9.60;99.90
51950;DHT22;37974;53.218;6.640;2024-01-30T12:52:58;9.50;99.90
51950;DHT22;37974;53.218;6.640;2024-01-30T12:55:24;9.50;99.90
51950;DHT22;37974;53.218;6.640;2024-01-30T12:57:52;9.50;99.90
51950;DHT22;37974;53.218;6.640;2024-01-30T13:00:18;9.40;99.90
51950;DHT22;37974;53.218;6.640;2024-01-30T13:02:43;9.40;99.90
51950;DHT22;37974;53.218;6.640;2024-01-30T13:05:10;9.30;99.90
51950;DHT22;37974;53.218;6.640;2024-01-30T13:07:36;9.30;99.90
51950;DHT22;37974;53.218;6.640;2024-01-30T13:10:02;9.30;99.90
51950;DHT22;37974;53.218;6.640;2024-01-30T13:12:29;9.20;99.90
51950;DHT22;37974;53.218;6.640;2024-01-30T13:14:55;9.20;99.90
51950;DHT22;37974;53.218;6.640;2024-01-30T13:17:21;9.20;99.90
51950;DHT22;37974;53.218;6.640;2024-01-30T13:19:47;9.20;99.90
51950;DHT22;37974;53.218;6.640;2024-01-30T13:22:15;9.20;99.90
51950;DHT22;37974;53.218;6.640;2024-01-30T13:24:41;9.30;99.90
51950;DHT22;37974;53.218;6.640;2024-01-30T13:27:07;9.30;99.90
51950;DHT22;37974;53.218;6.640;2024-01-30T13:29:34;9.30;99.90
51950;DHT22;37974;53.218;6.640;2024-01-30T13:31:59;9.40;99.90
51950;DHT22;37974;53.218;6.640;2024-01-30T13:34:25;9.40;99.90
51950;DHT22;37974;53.218;6.640;2024-01-30T13:36:51;9.40;99.90
51950;DHT22;37974;53.218;6.640;2024-01-30T13:39:17;9.40;99.90
51950;DHT22;37974;53.218;6.640;2024-01-30T13:41:43;9.40;99.90
51950;DHT22;37974;53.218;6.640;2024-01-30T13:44:09;9.40;99.90
51950;DHT22;37974;53.218;6.640;2024-01-30T13:46:35;9.40;99.90
51950;DHT22;37974;53.218;6.640;2024-01-30T13:49:01;9.40;99.90
51950;DHT22;37974;53.218;6.640;2024-01-30T13:51:27;9.40;99.90
51950;DHT22;37974;53.218;6.640;2024-01-30T13:53:53;9.30;99.90
51950;DHT22;37974;53.218;6.640;2024-01-30T13:56:20;9.30;99.90
51950;DHT22;37974;53.218;6.640;2024-01-30T13:58:48;9.20;99.90
51950;DHT22;37974;53.218;6.640;2024-01-30T14:01:14;9.20;99.90
51950;DHT22;37974;53.218;6.640;2024-01-30T14:03:40;9.20;99.90
51950;DHT22;37974;53.218;6.640;2024-01-30T14:06:06;9.10;99.90
51950;DHT22;37974;53.218;6.640;2024-01-30T14:08:32;9.10;99.90
51950;DHT22;37974;53.218;6.640;2024-01-30T14:10:58;9.10;99.90
51950;DHT22;37974;53.218;6.640;2024-01-30T14:13:23;9.10;99.90
51950;DHT22;37974;53.218;6.640;2024-01-30T14:15:51;9.10;99.90
51950;DHT22;37974;53.218;6.640;2024-01-30T14:18:17;9.10;99.90
51950;DHT22;37974;53.218;6.640;2024-01-30T14:20:43;9.00;99.90
51950;DHT22;37974;53.218;6.640;2024-01-30T14:23:09;9.00;99.90
51950;DHT22;37974;53.218;6.640;2024-01-30T14:25:34;9.00;99.90
51950;DHT22;37974;53.218;6.640;2024-01-30T14:28:00;9.00;99.90
51950;DHT22;37974;53.218;6.640;2024-01-30T14:30:26;9.00;99.90
51950;DHT22;37974;53.218;6.640;2024-01-30T14:32:52;8.90;99.90
51950;DHT22;37974;53.218;6.640;2024-01-30T14:35:17;8.90;99.90
51950;DHT22;37974;53.218;6.640;2024-01-30T14:37:45;8.80;99.90
51950;DHT22;37974;53.218;6.640;2024-01-30T14:40:10;8.80;99.90
51950;DHT22;37974;53.218;6.640;2024-01-30T14:42:36;8.70;99.90
51950;DHT22;37974;53.218;6.640;2024-01-30T14:45:03;8.70;99.90
51950;DHT22;37974;53.218;6.640;2024-01-30T14:47:29;8.60;99.90
51950;DHT22;37974;53.218;6.640;2024-01-30T14:49:57;8.60;99.90
51950;DHT22;37974;53.218;6.640;2024-01-30T14:52:23;8.60;99.90
51950;DHT22;37974;53.218;6.640;2024-01-30T14:54:49;8.50;99.90
51950;DHT22;37974;53.218;6.640;2024-01-30T14:57:15;8.40;99.90
51950;DHT22;37974;53.218;6.640;2024-01-30T14:59:41;8.40;99.90
51950;DHT22;37974;53.218;6.640;2024-01-30T15:02:07;8.30;99.90
51950;DHT22;37974;53.218;6.640;2024-01-30T15:04:33;8.40;99.90
51950;DHT22;37974;53.218;6.640;2024-01-30T15:06:58;8.30;99.90
51950;DHT22;37974;53.218;6.640;2024-01-30T15:09:24;8.30;99.90
51950;DHT22;37974;53.218;6.640;2024-01-30T15:11:52;8.20;99.90
51950;DHT22;37974;53.218;6.640;2024-01-30T15:14:18;8.20;99.90
51950;DHT22;37974;53.218;6.640;2024-01-30T15:16:44;8.20;99.90
51950;DHT22;37974;53.218;6.640;2024-01-30T15:19:09;8.10;99.90
51950;DHT22;37974;53.218;6.640;2024-01-30T15:21:35;8.10;99.90
51950;DHT22;37974;53.218;6.640;2024-01-30T15:24:02;8.10;99.90
51950;DHT22;37974;53.218;6.640;2024-01-30T15:26:28;8.10;99.90
51950;DHT22;37974;53.218;6.640;2024-01-30T15:28:54;8.10;99.90
51950;DHT22;37974;53.218;6.640;2024-01-30T15:31:20;8.20;99.90
51950;DHT22;37974;53.218;6.640;2024-01-30T15:33:46;8.10;99.90
51950;DHT22;37974;53.218;6.640;2024-01-30T15:36:12;8.10;99.90
51950;DHT22;37974;53.218;6.640;2024-01-30T15:38:40;8.10;99.90